This is the latest recevied weather packets stored in our database for station/object SM6LNJ-13. If no packets are shown the sender has not sent any weather packets the latest 1 day(s).
| Time | Temp. | Humidity | Pressure | Rain* | Wind** | Luminosity | Snow |
|---|---|---|---|---|---|---|---|
| 1778007350 | 7.78° C | 56% | 1414 hPa | 0 mm | 0.45 m/s, 191° | - | - |
| 1778007230 | 7.78° C | 56% | 1414 hPa | 0 mm | 0.45 m/s, 169° | - | - |
| 1778007110 | 7.78° C | 55% | 1414.1 hPa | 0 mm | 0.45 m/s, 152° | - | - |
| 1778006990 | 7.78° C | 55% | 1414.2 hPa | 0 mm | 0.45 m/s, 155° | - | - |
| 1778006870 | 7.78° C | 55% | 1414.3 hPa | 0 mm | 0 m/s | - | - |
| 1778006750 | 7.78° C | 54% | 1414.6 hPa | 0 mm | 0 m/s | - | - |
| 1778006630 | 8.33° C | 54% | 1414.7 hPa | 0 mm | 0 m/s | - | - |
| 1778006510 | 8.33° C | 54% | 1414.8 hPa | 0 mm | 0.45 m/s, 126° | - | - |
| 1778006390 | 8.33° C | 53% | 1414.9 hPa | 0 mm | 0.45 m/s, 146° | - | - |
| 1778006270 | 8.33° C | 53% | 1415.1 hPa | 0 mm | 0 m/s | - | - |
| 1778006150 | 8.33° C | 52% | 1415.2 hPa | 0 mm | 0 m/s | - | - |
| 1778006030 | 8.33° C | 52% | 1415.4 hPa | 0 mm | 0 m/s | - | - |
| 1778005910 | 8.33° C | 52% | 1415.6 hPa | 0 mm | 0.45 m/s, 168° | - | - |
| 1778005790 | 8.33° C | 51% | 1415.8 hPa | 0 mm | 0.45 m/s, 171° | - | - |
| 1778005670 | 8.89° C | 51% | 1416 hPa | 0 mm | 0.45 m/s, 164° | - | - |
| 1778005550 | 8.89° C | 51% | 1416.3 hPa | 0 mm | 0.45 m/s, 179° | - | - |
| 1778005430 | 8.89° C | 51% | 1416.6 hPa | 0 mm | 0.45 m/s, 158° | - | - |
| 1778005310 | 9.44° C | 51% | 1417.2 hPa | 0 mm | 0.45 m/s, 238° | - | - |
| 1778005190 | 9.44° C | 49% | 1418.2 hPa | 0 mm | 0.45 m/s, 178° | - | - |
| 1778005070 | 10° C | 47% | 1419.6 hPa | 0 mm | 0.45 m/s, 165° | - | - |
| 1778004950 | 11.11° C | 45% | 1422 hPa | 0 mm | 0.45 m/s, 209° | - | - |
| 1778004830 | 12.22° C | 44% | 1424.6 hPa | 0 mm | 0.45 m/s, 182° | - | - |
| 1778004710 | 12.78° C | 43% | 1425.5 hPa | 0 mm | 0.45 m/s, 160° | - | - |
| 1778004590 | 12.78° C | 44% | 1425.9 hPa | 0 mm | 0.45 m/s, 187° | - | - |
| 1778004470 | 12.78° C | 43% | 1426.1 hPa | 0 mm | 0.45 m/s, 155° | - | - |
* Rain latest hour (hover to see other rain measurements)
** Current wind speed in m/s (hover to see current wind gust speed)